Guest arttula

FSX:n "Real" world weather

5 viestiä aiheessa

Piti oikein mennä simulla katselemaan, miltä Lontoossa näyttää, kun on kuulemma hirvittävä lumisade. Mutta FSX:n säägeneraattori (Real world, update 15 min) antaa keliksi: Wind calm, Clear skies, Temp 15/12 :o, QNH 1013. Hassua lunta, kun 15 asteen lämmössä vielä lumena alas tulee. Ja vielä kirkkaalta taivaalta... :P

 

EDIT// Noh, IvAe antaa sääksi: EGLL 021020Z 03007KT 360V060 7000 FEW010 BKN035 M01/M02 Q0998 99590593 TEMPO 4000 -SN BKN014, joka lienee lähempänä oikeaa.

Jaa viesti


Link to post
Jaa muulla sivustolla

Piti oikein mennä simulla katselemaan, miltä Lontoossa näyttää, kun on kuulemma hirvittävä lumisade. Mutta FSX:n säägeneraattori (Real world, update 15 min) antaa keliksi: Wind calm, Clear skies, Temp 15/12 :o, QNH 1013. Hassua lunta, kun 15 asteen lämmössä vielä lumena alas tulee. Ja vielä kirkkaalta taivaalta... :P

 

EDIT// Noh, IvAe antaa sääksi: EGLL 021020Z 03007KT 360V060 7000 FEW010 BKN035 M01/M02 Q0998 99590593 TEMPO 4000 -SN BKN014, joka lienee lähempänä oikeaa.

Hyvin tyypillistä, joskus käy noin kun simun säätyökalu ei ilmeisesti jotenkin löydä oikeaa sääsanomaa ja silloin se heittää oletussäät tiskiin. Ei kenelläkään olisi tietoa miten tuon saa korjattua vai saako mitenkään?

Jaa viesti


Link to post
Jaa muulla sivustolla

Jostain muistan lukeneeni, että tuo simun real world weather määrittäisi sään kitkakertoimien perusteella. Siksi se näyttää suomessa aina talvisin sumua. ???

Jaa viesti


Link to post
Jaa muulla sivustolla

Jostain muistan lukeneeni, että tuo simun real world weather määrittäisi sään kitkakertoimien perusteella. Siksi se näyttää suomessa aina talvisin sumua. ???

 

Kyllä se minulla on monestikin lumisadetta näyttänyt, monessa paikassa.

Jaa viesti


Link to post
Jaa muulla sivustolla

No eikä pidä paikkaansa, jeppeseniltä se metarit lataa. Fogbug aiheutuu metar-sanoman 9999 visibility arvosta, jonka simu tulkitsee sumuksi. Siihen on ihan pätsi olemassa...

Kyllä itseasissa pitää, sillä simu tulkitsee nuo kitkakertoimetkin sumuksi, ja siihen tuo pätsi ei auta.

 

Oskari

Jaa viesti


Link to post
Jaa muulla sivustolla

Luo uusi käyttäjätunnus tai kirjaudu sisään

Sinun täytyy olla jäsen osallistuaksesi keskusteluun

Luo käyttäjätili

Rekisteröi uusi käyttäjätili helposti ja nopeasti!


Luo uusi käyttäjätili

Kirjaudu sisään

Sinulla on jo käyttäjätili?


Kirjaudu sisään